sensor_id;sensor_type;location;lat;lon;timestamp;P1;durP1;ratioP1;P2;durP2;ratioP2
7487;SDS011;3785;52.260;4.728;2022-12-11T00:03:17;32.13;;;14.00;;
7487;SDS011;3785;52.260;4.728;2022-12-11T00:06:38;29.67;;;14.40;;
7487;SDS011;3785;52.260;4.728;2022-12-11T00:09:58;34.30;;;13.98;;
7487;SDS011;3785;52.260;4.728;2022-12-11T00:13:19;30.55;;;13.80;;
7487;SDS011;3785;52.260;4.728;2022-12-11T00:16:40;31.67;;;12.90;;
7487;SDS011;3785;52.260;4.728;2022-12-11T00:20:01;27.63;;;12.07;;
7487;SDS011;3785;52.260;4.728;2022-12-11T00:23:21;28.63;;;12.93;;
7487;SDS011;3785;52.260;4.728;2022-12-11T00:26:42;28.58;;;14.18;;
7487;SDS011;3785;52.260;4.728;2022-12-11T00:30:03;30.00;;;13.85;;
7487;SDS011;3785;52.260;4.728;2022-12-11T00:33:25;32.92;;;13.68;;
7487;SDS011;3785;52.260;4.728;2022-12-11T00:36:46;29.25;;;13.48;;
7487;SDS011;3785;52.260;4.728;2022-12-11T00:40:06;29.45;;;14.20;;
7487;SDS011;3785;52.260;4.728;2022-12-11T00:43:27;29.15;;;13.98;;
7487;SDS011;3785;52.260;4.728;2022-12-11T00:46:48;35.83;;;15.63;;
7487;SDS011;3785;52.260;4.728;2022-12-11T00:50:09;32.80;;;15.27;;
7487;SDS011;3785;52.260;4.728;2022-12-11T00:53:29;32.33;;;13.85;;
7487;SDS011;3785;52.260;4.728;2022-12-11T00:56:50;36.55;;;15.90;;
7487;SDS011;3785;52.260;4.728;2022-12-11T01:00:11;27.40;;;13.20;;
7487;SDS011;3785;52.260;4.728;2022-12-11T01:03:32;33.08;;;13.48;;
7487;SDS011;3785;52.260;4.728;2022-12-11T01:06:52;29.08;;;13.35;;
7487;SDS011;3785;52.260;4.728;2022-12-11T01:10:13;35.05;;;14.00;;
7487;SDS011;3785;52.260;4.728;2022-12-11T01:13:43;37.88;;;14.93;;
7487;SDS011;3785;52.260;4.728;2022-12-11T01:17:05;32.85;;;14.73;;
7487;SDS011;3785;52.260;4.728;2022-12-11T01:20:26;33.03;;;14.77;;
7487;SDS011;3785;52.260;4.728;2022-12-11T01:23:48;36.38;;;14.48;;
7487;SDS011;3785;52.260;4.728;2022-12-11T01:27:09;29.90;;;14.18;;
7487;SDS011;3785;52.260;4.728;2022-12-11T01:30:30;38.38;;;15.82;;
7487;SDS011;3785;52.260;4.728;2022-12-11T01:33:52;32.47;;;14.27;;
7487;SDS011;3785;52.260;4.728;2022-12-11T01:37:13;35.40;;;14.70;;
7487;SDS011;3785;52.260;4.728;2022-12-11T01:40:34;30.27;;;13.45;;
7487;SDS011;3785;52.260;4.728;2022-12-11T01:43:59;30.50;;;14.93;;
7487;SDS011;3785;52.260;4.728;2022-12-11T01:47:20;28.58;;;14.13;;
7487;SDS011;3785;52.260;4.728;2022-12-11T01:50:51;33.35;;;15.43;;
7487;SDS011;3785;52.260;4.728;2022-12-11T01:54:14;30.42;;;14.50;;
7487;SDS011;3785;52.260;4.728;2022-12-11T01:57:37;33.20;;;13.98;;
7487;SDS011;3785;52.260;4.728;2022-12-11T02:01:00;25.38;;;12.73;;
7487;SDS011;3785;52.260;4.728;2022-12-11T02:04:22;29.48;;;14.55;;
7487;SDS011;3785;52.260;4.728;2022-12-11T02:07:45;30.35;;;14.48;;
7487;SDS011;3785;52.260;4.728;2022-12-11T02:11:14;27.73;;;14.00;;
7487;SDS011;3785;52.260;4.728;2022-12-11T02:14:44;32.42;;;14.82;;
7487;SDS011;3785;52.260;4.728;2022-12-11T02:18:18;23.33;;;11.82;;
7487;SDS011;3785;52.260;4.728;2022-12-11T02:21:40;26.75;;;13.40;;
7487;SDS011;3785;52.260;4.728;2022-12-11T02:28:41;25.02;;;12.88;;
7487;SDS011;3785;52.260;4.728;2022-12-11T02:32:10;21.50;;;12.38;;
7487;SDS011;3785;52.260;4.728;2022-12-11T02:35:41;19.25;;;10.63;;
7487;SDS011;3785;52.260;4.728;2022-12-11T02:39:03;24.98;;;11.63;;
7487;SDS011;3785;52.260;4.728;2022-12-11T02:42:26;26.05;;;12.05;;
7487;SDS011;3785;52.260;4.728;2022-12-11T02:45:48;21.65;;;11.52;;
7487;SDS011;3785;52.260;4.728;2022-12-11T02:49:10;23.27;;;11.27;;
7487;SDS011;3785;52.260;4.728;2022-12-11T02:52:32;24.40;;;11.45;;
7487;SDS011;3785;52.260;4.728;2022-12-11T02:56:01;21.75;;;11.00;;
7487;SDS011;3785;52.260;4.728;2022-12-11T02:59:43;20.63;;;10.43;;
7487;SDS011;3785;52.260;4.728;2022-12-11T03:03:05;19.05;;;9.90;;
7487;SDS011;3785;52.260;4.728;2022-12-11T03:06:35;24.58;;;11.68;;
7487;SDS011;3785;52.260;4.728;2022-12-11T03:09:59;20.52;;;11.02;;
7487;SDS011;3785;52.260;4.728;2022-12-11T03:13:20;21.77;;;10.73;;
7487;SDS011;3785;52.260;4.728;2022-12-11T03:20:42;22.70;;;11.13;;
7487;SDS011;3785;52.260;4.728;2022-12-11T03:24:07;30.35;;;12.00;;
7487;SDS011;3785;52.260;4.728;2022-12-11T03:27:45;19.88;;;11.05;;
7487;SDS011;3785;52.260;4.728;2022-12-11T03:31:21;22.55;;;12.38;;
7487;SDS011;3785;52.260;4.728;2022-12-11T03:34:57;20.45;;;9.43;;
7487;SDS011;3785;52.260;4.728;2022-12-11T03:38:30;21.17;;;10.82;;
7487;SDS011;3785;52.260;4.728;2022-12-11T03:41:56;20.95;;;10.50;;
7487;SDS011;3785;52.260;4.728;2022-12-11T03:45:18;26.33;;;11.27;;
7487;SDS011;3785;52.260;4.728;2022-12-11T03:48:40;18.67;;;10.73;;
7487;SDS011;3785;52.260;4.728;2022-12-11T03:52:02;24.42;;;12.23;;
7487;SDS011;3785;52.260;4.728;2022-12-11T03:55:23;24.42;;;10.95;;
7487;SDS011;3785;52.260;4.728;2022-12-11T03:58:46;21.85;;;12.15;;
7487;SDS011;3785;52.260;4.728;2022-12-11T04:02:06;25.77;;;12.07;;
7487;SDS011;3785;52.260;4.728;2022-12-11T04:05:29;29.92;;;11.57;;
7487;SDS011;3785;52.260;4.728;2022-12-11T04:08:50;27.15;;;12.90;;
7487;SDS011;3785;52.260;4.728;2022-12-11T04:12:11;22.40;;;11.18;;
7487;SDS011;3785;52.260;4.728;2022-12-11T04:15:31;26.60;;;12.07;;
7487;SDS011;3785;52.260;4.728;2022-12-11T04:18:52;28.85;;;12.52;;
7487;SDS011;3785;52.260;4.728;2022-12-11T04:22:31;32.15;;;12.32;;
7487;SDS011;3785;52.260;4.728;2022-12-11T04:26:15;28.80;;;13.45;;
7487;SDS011;3785;52.260;4.728;2022-12-11T04:29:37;23.23;;;11.75;;
7487;SDS011;3785;52.260;4.728;2022-12-11T04:32:57;30.63;;;12.68;;
7487;SDS011;3785;52.260;4.728;2022-12-11T04:36:18;28.23;;;11.98;;
7487;SDS011;3785;52.260;4.728;2022-12-11T04:39:38;28.65;;;12.63;;
7487;SDS011;3785;52.260;4.728;2022-12-11T04:42:59;28.60;;;12.45;;
7487;SDS011;3785;52.260;4.728;2022-12-11T04:46:20;30.45;;;12.48;;
7487;SDS011;3785;52.260;4.728;2022-12-11T04:49:42;30.25;;;11.57;;
7487;SDS011;3785;52.260;4.728;2022-12-11T04:53:02;21.55;;;11.27;;
7487;SDS011;3785;52.260;4.728;2022-12-11T04:56:23;23.98;;;11.48;;
7487;SDS011;3785;52.260;4.728;2022-12-11T04:59:43;20.42;;;11.15;;
7487;SDS011;3785;52.260;4.728;2022-12-11T05:03:04;28.73;;;11.35;;
7487;SDS011;3785;52.260;4.728;2022-12-11T05:06:25;21.40;;;10.50;;
7487;SDS011;3785;52.260;4.728;2022-12-11T05:09:45;23.45;;;9.85;;
7487;SDS011;3785;52.260;4.728;2022-12-11T05:13:06;25.05;;;11.07;;
7487;SDS011;3785;52.260;4.728;2022-12-11T05:16:26;25.10;;;10.80;;
7487;SDS011;3785;52.260;4.728;2022-12-11T05:19:47;23.65;;;11.38;;
7487;SDS011;3785;52.260;4.728;2022-12-11T05:23:09;24.77;;;12.38;;
7487;SDS011;3785;52.260;4.728;2022-12-11T05:26:29;23.85;;;11.50;;
7487;SDS011;3785;52.260;4.728;2022-12-11T05:29:50;24.10;;;11.63;;
7487;SDS011;3785;52.260;4.728;2022-12-11T05:33:10;24.63;;;12.18;;
7487;SDS011;3785;52.260;4.728;2022-12-11T05:36:31;21.52;;;10.20;;
7487;SDS011;3785;52.260;4.728;2022-12-11T05:39:52;22.98;;;11.55;;
7487;SDS011;3785;52.260;4.728;2022-12-11T05:43:14;21.45;;;10.23;;
7487;SDS011;3785;52.260;4.728;2022-12-11T05:46:35;20.85;;;9.82;;
7487;SDS011;3785;52.260;4.728;2022-12-11T05:49:56;26.13;;;11.15;;
7487;SDS011;3785;52.260;4.728;2022-12-11T05:53:16;20.50;;;10.55;;
7487;SDS011;3785;52.260;4.728;2022-12-11T05:56:37;22.33;;;10.52;;
7487;SDS011;3785;52.260;4.728;2022-12-11T05:59:57;23.67;;;10.73;;
7487;SDS011;3785;52.260;4.728;2022-12-11T06:07:31;23.67;;;10.25;;
7487;SDS011;3785;52.260;4.728;2022-12-11T06:10:52;20.88;;;9.93;;
7487;SDS011;3785;52.260;4.728;2022-12-11T06:14:12;22.33;;;9.70;;
7487;SDS011;3785;52.260;4.728;2022-12-11T06:17:33;24.15;;;9.77;;
7487;SDS011;3785;52.260;4.728;2022-12-11T06:20:53;18.67;;;10.13;;
7487;SDS011;3785;52.260;4.728;2022-12-11T06:24:14;23.48;;;10.25;;
7487;SDS011;3785;52.260;4.728;2022-12-11T06:27:35;20.95;;;9.40;;
7487;SDS011;3785;52.260;4.728;2022-12-11T06:30:59;18.95;;;9.23;;
7487;SDS011;3785;52.260;4.728;2022-12-11T06:34:20;15.20;;;7.93;;
7487;SDS011;3785;52.260;4.728;2022-12-11T06:37:40;15.75;;;7.88;;
7487;SDS011;3785;52.260;4.728;2022-12-11T06:41:01;17.83;;;7.88;;
7487;SDS011;3785;52.260;4.728;2022-12-11T06:44:25;15.68;;;7.32;;
7487;SDS011;3785;52.260;4.728;2022-12-11T06:47:46;14.60;;;7.88;;
7487;SDS011;3785;52.260;4.728;2022-12-11T06:51:07;17.02;;;7.90;;
7487;SDS011;3785;52.260;4.728;2022-12-11T06:54:29;15.32;;;7.25;;
7487;SDS011;3785;52.260;4.728;2022-12-11T06:57:50;15.20;;;7.20;;
7487;SDS011;3785;52.260;4.728;2022-12-11T07:01:14;15.10;;;7.50;;
7487;SDS011;3785;52.260;4.728;2022-12-11T07:04:37;16.13;;;6.82;;
7487;SDS011;3785;52.260;4.728;2022-12-11T07:07:57;13.82;;;6.53;;
7487;SDS011;3785;52.260;4.728;2022-12-11T07:11:19;13.57;;;6.85;;
7487;SDS011;3785;52.260;4.728;2022-12-11T07:14:43;11.25;;;5.95;;
7487;SDS011;3785;52.260;4.728;2022-12-11T07:18:04;15.88;;;7.45;;
7487;SDS011;3785;52.260;4.728;2022-12-11T07:21:25;16.20;;;7.43;;
7487;SDS011;3785;52.260;4.728;2022-12-11T07:24:45;20.73;;;8.68;;
7487;SDS011;3785;52.260;4.728;2022-12-11T07:28:06;15.55;;;6.97;;
7487;SDS011;3785;52.260;4.728;2022-12-11T07:31:29;18.65;;;8.48;;
7487;SDS011;3785;52.260;4.728;2022-12-11T07:34:50;13.88;;;7.47;;
7487;SDS011;3785;52.260;4.728;2022-12-11T07:38:10;15.90;;;7.50;;
7487;SDS011;3785;52.260;4.728;2022-12-11T07:45:24;17.17;;;8.32;;
7487;SDS011;3785;52.260;4.728;2022-12-11T07:48:45;16.13;;;8.13;;
7487;SDS011;3785;52.260;4.728;2022-12-11T07:52:07;16.95;;;7.75;;
7487;SDS011;3785;52.260;4.728;2022-12-11T07:55:27;18.58;;;7.93;;
7487;SDS011;3785;52.260;4.728;2022-12-11T07:58:48;18.85;;;9.02;;
7487;SDS011;3785;52.260;4.728;2022-12-11T08:02:09;18.25;;;7.93;;
7487;SDS011;3785;52.260;4.728;2022-12-11T08:05:30;19.50;;;8.27;;
7487;SDS011;3785;52.260;4.728;2022-12-11T08:08:52;18.35;;;8.85;;
7487;SDS011;3785;52.260;4.728;2022-12-11T08:12:13;20.48;;;9.68;;
7487;SDS011;3785;52.260;4.728;2022-12-11T08:15:34;24.60;;;9.85;;
7487;SDS011;3785;52.260;4.728;2022-12-11T08:18:54;20.77;;;8.55;;
7487;SDS011;3785;52.260;4.728;2022-12-11T08:22:15;22.30;;;9.85;;
7487;SDS011;3785;52.260;4.728;2022-12-11T08:25:36;24.83;;;10.27;;
7487;SDS011;3785;52.260;4.728;2022-12-11T08:28:56;22.90;;;10.05;;
7487;SDS011;3785;52.260;4.728;2022-12-11T08:36:11;20.90;;;9.55;;
7487;SDS011;3785;52.260;4.728;2022-12-11T08:39:33;24.08;;;9.45;;
7487;SDS011;3785;52.260;4.728;2022-12-11T08:42:53;24.08;;;9.43;;
7487;SDS011;3785;52.260;4.728;2022-12-11T08:46:14;24.92;;;9.63;;
7487;SDS011;3785;52.260;4.728;2022-12-11T08:49:35;23.58;;;9.50;;
7487;SDS011;3785;52.260;4.728;2022-12-11T08:52:57;20.23;;;8.50;;
7487;SDS011;3785;52.260;4.728;2022-12-11T08:56:18;20.83;;;9.80;;
7487;SDS011;3785;52.260;4.728;2022-12-11T08:59:40;17.58;;;8.60;;
7487;SDS011;3785;52.260;4.728;2022-12-11T09:03:01;19.98;;;9.52;;
7487;SDS011;3785;52.260;4.728;2022-12-11T09:06:22;18.67;;;8.48;;
7487;SDS011;3785;52.260;4.728;2022-12-11T09:09:44;20.52;;;9.52;;
7487;SDS011;3785;52.260;4.728;2022-12-11T09:16:54;21.73;;;9.13;;
7487;SDS011;3785;52.260;4.728;2022-12-11T09:20:15;21.25;;;9.43;;
7487;SDS011;3785;52.260;4.728;2022-12-11T09:23:36;18.08;;;7.88;;
7487;SDS011;3785;52.260;4.728;2022-12-11T09:26:56;18.73;;;9.35;;
7487;SDS011;3785;52.260;4.728;2022-12-11T09:30:17;18.45;;;9.20;;
7487;SDS011;3785;52.260;4.728;2022-12-11T09:33:44;22.88;;;9.73;;
7487;SDS011;3785;52.260;4.728;2022-12-11T09:37:05;14.82;;;7.95;;
7487;SDS011;3785;52.260;4.728;2022-12-11T09:40:25;21.23;;;9.23;;
7487;SDS011;3785;52.260;4.728;2022-12-11T09:47:24;17.63;;;8.68;;
7487;SDS011;3785;52.260;4.728;2022-12-11T09:50:48;18.27;;;9.23;;
7487;SDS011;3785;52.260;4.728;2022-12-11T09:54:12;23.42;;;8.90;;
7487;SDS011;3785;52.260;4.728;2022-12-11T10:01:17;21.30;;;10.13;;
7487;SDS011;3785;52.260;4.728;2022-12-11T10:04:49;18.63;;;9.27;;
7487;SDS011;3785;52.260;4.728;2022-12-11T10:12:26;24.67;;;9.65;;
7487;SDS011;3785;52.260;4.728;2022-12-11T10:22:41;22.80;;;10.65;;
7487;SDS011;3785;52.260;4.728;2022-12-11T10:26:03;20.17;;;10.68;;
7487;SDS011;3785;52.260;4.728;2022-12-11T10:29:35;20.33;;;10.52;;
7487;SDS011;3785;52.260;4.728;2022-12-11T10:36:38;22.45;;;10.73;;
7487;SDS011;3785;52.260;4.728;2022-12-11T10:40:00;23.75;;;11.48;;
7487;SDS011;3785;52.260;4.728;2022-12-11T10:43:30;24.13;;;11.68;;
7487;SDS011;3785;52.260;4.728;2022-12-11T10:50:23;22.10;;;10.63;;
7487;SDS011;3785;52.260;4.728;2022-12-11T10:53:51;20.17;;;9.98;;
7487;SDS011;3785;52.260;4.728;2022-12-11T10:57:14;24.05;;;10.68;;
7487;SDS011;3785;52.260;4.728;2022-12-11T11:00:35;21.13;;;11.23;;
7487;SDS011;3785;52.260;4.728;2022-12-11T11:04:05;22.45;;;10.80;;
7487;SDS011;3785;52.260;4.728;2022-12-11T11:07:34;22.08;;;10.65;;
7487;SDS011;3785;52.260;4.728;2022-12-11T11:10:55;24.35;;;10.23;;
7487;SDS011;3785;52.260;4.728;2022-12-11T11:14:18;27.92;;;11.45;;
7487;SDS011;3785;52.260;4.728;2022-12-11T11:17:49;22.85;;;11.15;;
7487;SDS011;3785;52.260;4.728;2022-12-11T11:21:18;25.83;;;10.85;;
7487;SDS011;3785;52.260;4.728;2022-12-11T11:24:44;25.60;;;11.57;;
7487;SDS011;3785;52.260;4.728;2022-12-11T11:28:23;37.47;;;11.63;;
7487;SDS011;3785;52.260;4.728;2022-12-11T11:31:55;26.75;;;11.35;;
7487;SDS011;3785;52.260;4.728;2022-12-11T11:39:23;21.55;;;10.63;;
7487;SDS011;3785;52.260;4.728;2022-12-11T11:42:56;24.30;;;10.77;;
7487;SDS011;3785;52.260;4.728;2022-12-11T11:53:42;24.33;;;10.20;;
7487;SDS011;3785;52.260;4.728;2022-12-11T11:57:11;23.90;;;11.07;;
7487;SDS011;3785;52.260;4.728;2022-12-11T12:00:34;25.05;;;10.65;;
7487;SDS011;3785;52.260;4.728;2022-12-11T12:03:55;24.05;;;10.52;;
7487;SDS011;3785;52.260;4.728;2022-12-11T12:07:27;22.52;;;10.15;;
7487;SDS011;3785;52.260;4.728;2022-12-11T12:11:25;27.42;;;11.10;;
7487;SDS011;3785;52.260;4.728;2022-12-11T12:26:17;21.77;;;9.43;;
7487;SDS011;3785;52.260;4.728;2022-12-11T12:33:30;12.93;;;7.03;;
7487;SDS011;3785;52.260;4.728;2022-12-11T12:36:55;17.40;;;8.27;;
7487;SDS011;3785;52.260;4.728;2022-12-11T12:44:11;17.20;;;8.20;;
7487;SDS011;3785;52.260;4.728;2022-12-11T12:47:40;20.38;;;9.10;;
7487;SDS011;3785;52.260;4.728;2022-12-11T12:51:02;22.38;;;10.25;;
7487;SDS011;3785;52.260;4.728;2022-12-11T12:54:23;20.27;;;10.32;;
7487;SDS011;3785;52.260;4.728;2022-12-11T12:57:53;23.70;;;10.45;;
7487;SDS011;3785;52.260;4.728;2022-12-11T13:01:18;27.05;;;11.70;;
7487;SDS011;3785;52.260;4.728;2022-12-11T13:04:42;23.70;;;10.73;;
7487;SDS011;3785;52.260;4.728;2022-12-11T13:08:04;26.10;;;12.45;;
7487;SDS011;3785;52.260;4.728;2022-12-11T13:11:32;25.77;;;11.77;;
7487;SDS011;3785;52.260;4.728;2022-12-11T13:14:56;25.38;;;12.77;;
7487;SDS011;3785;52.260;4.728;2022-12-11T13:18:31;32.50;;;12.05;;
7487;SDS011;3785;52.260;4.728;2022-12-11T13:25:28;26.00;;;12.10;;
7487;SDS011;3785;52.260;4.728;2022-12-11T13:28:50;27.27;;;11.82;;
7487;SDS011;3785;52.260;4.728;2022-12-11T13:35:37;25.58;;;10.63;;
7487;SDS011;3785;52.260;4.728;2022-12-11T13:38:59;30.08;;;11.40;;
7487;SDS011;3785;52.260;4.728;2022-12-11T13:42:32;26.38;;;11.45;;
7487;SDS011;3785;52.260;4.728;2022-12-11T13:46:24;28.65;;;11.13;;
7487;SDS011;3785;52.260;4.728;2022-12-11T13:49:48;27.23;;;10.60;;
7487;SDS011;3785;52.260;4.728;2022-12-11T13:53:13;21.90;;;10.63;;
7487;SDS011;3785;52.260;4.728;2022-12-11T13:56:35;26.75;;;11.30;;
7487;SDS011;3785;52.260;4.728;2022-12-11T13:59:56;23.50;;;11.60;;
7487;SDS011;3785;52.260;4.728;2022-12-11T14:03:18;25.30;;;11.90;;
7487;SDS011;3785;52.260;4.728;2022-12-11T14:06:38;22.95;;;10.60;;
7487;SDS011;3785;52.260;4.728;2022-12-11T14:10:02;24.48;;;11.93;;
7487;SDS011;3785;52.260;4.728;2022-12-11T14:13:34;27.63;;;10.90;;
7487;SDS011;3785;52.260;4.728;2022-12-11T14:16:55;27.67;;;11.15;;
7487;SDS011;3785;52.260;4.728;2022-12-11T14:20:20;26.10;;;11.35;;
7487;SDS011;3785;52.260;4.728;2022-12-11T14:23:49;30.05;;;12.15;;
7487;SDS011;3785;52.260;4.728;2022-12-11T14:27:15;23.75;;;11.52;;
7487;SDS011;3785;52.260;4.728;2022-12-11T14:30:37;26.67;;;12.32;;
7487;SDS011;3785;52.260;4.728;2022-12-11T14:34:03;23.73;;;11.80;;
7487;SDS011;3785;52.260;4.728;2022-12-11T14:37:51;27.27;;;12.23;;
7487;SDS011;3785;52.260;4.728;2022-12-11T14:41:13;29.10;;;12.63;;
7487;SDS011;3785;52.260;4.728;2022-12-11T14:44:49;31.00;;;11.45;;
7487;SDS011;3785;52.260;4.728;2022-12-11T14:48:15;30.85;;;13.30;;
7487;SDS011;3785;52.260;4.728;2022-12-11T14:51:38;29.33;;;12.40;;
7487;SDS011;3785;52.260;4.728;2022-12-11T14:55:06;25.13;;;11.77;;
7487;SDS011;3785;52.260;4.728;2022-12-11T14:58:29;30.58;;;12.30;;
7487;SDS011;3785;52.260;4.728;2022-12-11T15:02:01;27.02;;;12.45;;
7487;SDS011;3785;52.260;4.728;2022-12-11T15:05:46;24.05;;;11.60;;
7487;SDS011;3785;52.260;4.728;2022-12-11T15:09:48;27.98;;;12.80;;
7487;SDS011;3785;52.260;4.728;2022-12-11T15:13:05;28.60;;;11.82;;
7487;SDS011;3785;52.260;4.728;2022-12-11T15:16:27;26.70;;;11.75;;
7487;SDS011;3785;52.260;4.728;2022-12-11T15:19:52;26.55;;;11.70;;
7487;SDS011;3785;52.260;4.728;2022-12-11T15:23:15;23.70;;;12.32;;
7487;SDS011;3785;52.260;4.728;2022-12-11T15:29:57;24.95;;;12.18;;
7487;SDS011;3785;52.260;4.728;2022-12-11T15:33:18;33.08;;;12.57;;
7487;SDS011;3785;52.260;4.728;2022-12-11T15:36:40;30.45;;;12.40;;
7487;SDS011;3785;52.260;4.728;2022-12-11T15:40:02;25.65;;;11.40;;
7487;SDS011;3785;52.260;4.728;2022-12-11T15:43:23;23.38;;;10.60;;
7487;SDS011;3785;52.260;4.728;2022-12-11T15:46:44;31.48;;;11.55;;
7487;SDS011;3785;52.260;4.728;2022-12-11T15:50:24;21.33;;;9.75;;
7487;SDS011;3785;52.260;4.728;2022-12-11T15:53:46;25.40;;;10.32;;
7487;SDS011;3785;52.260;4.728;2022-12-11T15:57:08;17.38;;;8.30;;
7487;SDS011;3785;52.260;4.728;2022-12-11T16:00:33;15.55;;;8.25;;
7487;SDS011;3785;52.260;4.728;2022-12-11T16:03:54;17.40;;;7.75;;
7487;SDS011;3785;52.260;4.728;2022-12-11T16:07:16;22.17;;;8.63;;
7487;SDS011;3785;52.260;4.728;2022-12-11T16:10:41;15.98;;;8.02;;
7487;SDS011;3785;52.260;4.728;2022-12-11T16:14:02;18.95;;;8.57;;
7487;SDS011;3785;52.260;4.728;2022-12-11T16:17:23;17.08;;;8.13;;
7487;SDS011;3785;52.260;4.728;2022-12-11T16:20:44;16.67;;;7.85;;
7487;SDS011;3785;52.260;4.728;2022-12-11T16:24:05;16.10;;;8.18;;
7487;SDS011;3785;52.260;4.728;2022-12-11T16:27:25;15.95;;;8.00;;
7487;SDS011;3785;52.260;4.728;2022-12-11T16:30:46;17.40;;;8.70;;
7487;SDS011;3785;52.260;4.728;2022-12-11T16:34:07;15.85;;;8.50;;
7487;SDS011;3785;52.260;4.728;2022-12-11T16:37:27;14.23;;;8.20;;
7487;SDS011;3785;52.260;4.728;2022-12-11T16:40:57;21.00;;;8.93;;
7487;SDS011;3785;52.260;4.728;2022-12-11T16:44:19;18.80;;;9.70;;
7487;SDS011;3785;52.260;4.728;2022-12-11T16:47:41;20.17;;;8.82;;
7487;SDS011;3785;52.260;4.728;2022-12-11T16:51:02;19.00;;;9.88;;
7487;SDS011;3785;52.260;4.728;2022-12-11T16:54:22;17.77;;;9.05;;
7487;SDS011;3785;52.260;4.728;2022-12-11T16:57:43;20.77;;;9.88;;
7487;SDS011;3785;52.260;4.728;2022-12-11T17:01:08;18.13;;;9.75;;
7487;SDS011;3785;52.260;4.728;2022-12-11T17:04:31;22.70;;;10.05;;
7487;SDS011;3785;52.260;4.728;2022-12-11T17:07:52;20.92;;;10.70;;
7487;SDS011;3785;52.260;4.728;2022-12-11T17:11:14;24.35;;;10.60;;
7487;SDS011;3785;52.260;4.728;2022-12-11T17:14:35;25.25;;;12.32;;
7487;SDS011;3785;52.260;4.728;2022-12-11T17:17:56;22.58;;;11.13;;
7487;SDS011;3785;52.260;4.728;2022-12-11T17:21:17;26.48;;;12.20;;
7487;SDS011;3785;52.260;4.728;2022-12-11T17:24:38;23.15;;;12.63;;
7487;SDS011;3785;52.260;4.728;2022-12-11T17:27:59;37.88;;;13.40;;
7487;SDS011;3785;52.260;4.728;2022-12-11T17:31:20;31.10;;;13.68;;
7487;SDS011;3785;52.260;4.728;2022-12-11T17:34:40;25.08;;;11.93;;
7487;SDS011;3785;52.260;4.728;2022-12-11T17:38:01;28.45;;;12.73;;
7487;SDS011;3785;52.260;4.728;2022-12-11T17:41:21;27.15;;;12.00;;
7487;SDS011;3785;52.260;4.728;2022-12-11T17:44:42;28.60;;;11.80;;
7487;SDS011;3785;52.260;4.728;2022-12-11T17:48:04;25.35;;;11.45;;
7487;SDS011;3785;52.260;4.728;2022-12-11T17:51:25;27.45;;;12.90;;
7487;SDS011;3785;52.260;4.728;2022-12-11T17:54:46;26.73;;;13.05;;
7487;SDS011;3785;52.260;4.728;2022-12-11T17:58:10;23.05;;;11.20;;
7487;SDS011;3785;52.260;4.728;2022-12-11T18:01:32;27.13;;;13.20;;
7487;SDS011;3785;52.260;4.728;2022-12-11T18:04:52;25.25;;;12.95;;
7487;SDS011;3785;52.260;4.728;2022-12-11T18:08:14;26.17;;;11.85;;
7487;SDS011;3785;52.260;4.728;2022-12-11T18:11:37;22.90;;;10.68;;
7487;SDS011;3785;52.260;4.728;2022-12-11T18:14:58;19.73;;;10.38;;
7487;SDS011;3785;52.260;4.728;2022-12-11T18:18:22;22.65;;;11.43;;
7487;SDS011;3785;52.260;4.728;2022-12-11T18:21:43;22.95;;;11.27;;
7487;SDS011;3785;52.260;4.728;2022-12-11T18:25:04;22.65;;;10.70;;
7487;SDS011;3785;52.260;4.728;2022-12-11T18:28:26;23.95;;;11.43;;
7487;SDS011;3785;52.260;4.728;2022-12-11T18:31:46;24.20;;;10.85;;
7487;SDS011;3785;52.260;4.728;2022-12-11T18:35:07;20.80;;;9.73;;
7487;SDS011;3785;52.260;4.728;2022-12-11T18:38:29;21.95;;;10.50;;
7487;SDS011;3785;52.260;4.728;2022-12-11T18:41:50;18.17;;;9.30;;
7487;SDS011;3785;52.260;4.728;2022-12-11T18:45:10;18.80;;;9.82;;
7487;SDS011;3785;52.260;4.728;2022-12-11T18:48:31;24.35;;;11.73;;
7487;SDS011;3785;52.260;4.728;2022-12-11T18:51:51;19.50;;;10.63;;
7487;SDS011;3785;52.260;4.728;2022-12-11T18:55:12;20.90;;;10.77;;
7487;SDS011;3785;52.260;4.728;2022-12-11T18:58:32;24.75;;;10.23;;
7487;SDS011;3785;52.260;4.728;2022-12-11T19:01:53;21.48;;;10.35;;
7487;SDS011;3785;52.260;4.728;2022-12-11T19:05:14;22.83;;;11.65;;
7487;SDS011;3785;52.260;4.728;2022-12-11T19:08:34;21.75;;;9.95;;
7487;SDS011;3785;52.260;4.728;2022-12-11T19:11:55;19.15;;;9.02;;
7487;SDS011;3785;52.260;4.728;2022-12-11T19:15:16;20.48;;;8.90;;
7487;SDS011;3785;52.260;4.728;2022-12-11T19:18:37;16.38;;;8.23;;
7487;SDS011;3785;52.260;4.728;2022-12-11T19:21:57;17.20;;;9.50;;
7487;SDS011;3785;52.260;4.728;2022-12-11T19:25:18;18.42;;;8.90;;
7487;SDS011;3785;52.260;4.728;2022-12-11T19:28:39;18.83;;;9.70;;
7487;SDS011;3785;52.260;4.728;2022-12-11T19:32:03;18.83;;;9.65;;
7487;SDS011;3785;52.260;4.728;2022-12-11T19:35:24;18.77;;;9.50;;
7487;SDS011;3785;52.260;4.728;2022-12-11T19:38:44;20.02;;;10.10;;
7487;SDS011;3785;52.260;4.728;2022-12-11T19:42:05;18.33;;;9.57;;
7487;SDS011;3785;52.260;4.728;2022-12-11T19:45:26;13.55;;;8.00;;
7487;SDS011;3785;52.260;4.728;2022-12-11T19:48:47;16.98;;;9.02;;
7487;SDS011;3785;52.260;4.728;2022-12-11T19:52:09;15.05;;;8.90;;
7487;SDS011;3785;52.260;4.728;2022-12-11T19:55:30;17.88;;;9.60;;
7487;SDS011;3785;52.260;4.728;2022-12-11T19:58:51;17.15;;;9.15;;
7487;SDS011;3785;52.260;4.728;2022-12-11T20:02:11;15.45;;;8.13;;
7487;SDS011;3785;52.260;4.728;2022-12-11T20:05:32;20.33;;;10.45;;
7487;SDS011;3785;52.260;4.728;2022-12-11T20:08:52;19.98;;;11.65;;
7487;SDS011;3785;52.260;4.728;2022-12-11T20:12:13;18.45;;;9.93;;
7487;SDS011;3785;52.260;4.728;2022-12-11T20:15:37;19.27;;;10.88;;
7487;SDS011;3785;52.260;4.728;2022-12-11T20:18:58;17.30;;;9.40;;
7487;SDS011;3785;52.260;4.728;2022-12-11T20:22:18;26.02;;;12.18;;
7487;SDS011;3785;52.260;4.728;2022-12-11T20:25:39;19.48;;;11.43;;
7487;SDS011;3785;52.260;4.728;2022-12-11T20:28:59;25.40;;;11.00;;
7487;SDS011;3785;52.260;4.728;2022-12-11T20:32:23;23.08;;;10.85;;
7487;SDS011;3785;52.260;4.728;2022-12-11T20:35:44;18.23;;;9.80;;
7487;SDS011;3785;52.260;4.728;2022-12-11T20:39:05;21.58;;;11.25;;
7487;SDS011;3785;52.260;4.728;2022-12-11T20:42:25;25.88;;;11.98;;
7487;SDS011;3785;52.260;4.728;2022-12-11T20:45:47;21.55;;;11.02;;
7487;SDS011;3785;52.260;4.728;2022-12-11T20:49:08;18.20;;;10.02;;
7487;SDS011;3785;52.260;4.728;2022-12-11T20:52:31;18.85;;;10.70;;
7487;SDS011;3785;52.260;4.728;2022-12-11T20:55:53;21.55;;;11.43;;
7487;SDS011;3785;52.260;4.728;2022-12-11T20:59:14;25.20;;;12.27;;
7487;SDS011;3785;52.260;4.728;2022-12-11T21:02:35;26.45;;;11.23;;
7487;SDS011;3785;52.260;4.728;2022-12-11T21:05:56;19.67;;;9.48;;
7487;SDS011;3785;52.260;4.728;2022-12-11T21:09:22;23.30;;;10.75;;
7487;SDS011;3785;52.260;4.728;2022-12-11T21:12:44;24.08;;;11.55;;
7487;SDS011;3785;52.260;4.728;2022-12-11T21:16:05;20.75;;;10.43;;
7487;SDS011;3785;52.260;4.728;2022-12-11T21:19:26;25.05;;;10.50;;
7487;SDS011;3785;52.260;4.728;2022-12-11T21:22:47;21.98;;;10.35;;
7487;SDS011;3785;52.260;4.728;2022-12-11T21:26:07;20.92;;;11.23;;
7487;SDS011;3785;52.260;4.728;2022-12-11T21:29:30;21.73;;;10.50;;
7487;SDS011;3785;52.260;4.728;2022-12-11T21:32:50;20.30;;;11.10;;
7487;SDS011;3785;52.260;4.728;2022-12-11T21:36:12;19.20;;;10.30;;
7487;SDS011;3785;52.260;4.728;2022-12-11T21:39:34;20.20;;;9.88;;
7487;SDS011;3785;52.260;4.728;2022-12-11T21:42:55;21.20;;;9.77;;
7487;SDS011;3785;52.260;4.728;2022-12-11T21:46:17;19.25;;;10.10;;
7487;SDS011;3785;52.260;4.728;2022-12-11T21:49:38;18.08;;;9.35;;
7487;SDS011;3785;52.260;4.728;2022-12-11T21:52:59;17.25;;;9.45;;
7487;SDS011;3785;52.260;4.728;2022-12-11T21:56:22;19.95;;;9.55;;
7487;SDS011;3785;52.260;4.728;2022-12-11T21:59:43;18.35;;;9.20;;
7487;SDS011;3785;52.260;4.728;2022-12-11T22:03:04;18.23;;;9.75;;